CheckWX is a tool to help pilots better visualize weather data.  It is not intended as a substitute for an official pre-flight weather briefing.

05:40:10 UTC

KMGW TAF
Morgantown Municipal-Walter L Bill Hart Field Airport
Morgantown, West Virginia, USA
KMGW 280520Z 2806/2906 25009KT 6SM -SN OVC035 TEMPO 2806/2810 2SM -SN BKN015 FM281300 25009KT P6SM -SN OVC040 FM281600 25012G22KT P6SM BKN035 FM290100 28008KT P6SM SCT035

Feb-28@
06:00 UTC

Feb-28 @ 06:00 UTC

Feb-28@
13:00 UTC

Feb-28 @ 13:00 UTC

KMGW 280520Z 2806/2906 25009KT 6SM -SN OVC035
Wind
  • 250° at 9 KTS
Conditions
Light Snow
Cloud Levels
  • Overcast at 3,500' AGL

Feb-28@
06:00 UTC

Feb-28 @ 06:00 UTC

Feb-28@
10:00 UTC

Feb-28 @ 10:00 UTC

TEMPO 2806/2810 2SM -SN BKN015

Temporary

Temporary Changes expected for less than half the time period

Conditions
Light Snow
Cloud Levels
  • Broken at 1,500' AGL

Feb-28@
13:00 UTC

Feb-28 @ 13:00 UTC

Feb-28@
16:00 UTC

Feb-28 @ 16:00 UTC

FM281300 25009KT P6SM -SN OVC040

From

From Standard forecast or significant change

Wind
  • 250° at 9 KTS
Conditions
Light Snow
Cloud Levels
  • Overcast at 4,000' AGL

Feb-28@
16:00 UTC

Feb-28 @ 16:00 UTC

Feb-29@
01:00 UTC

Feb-29 @ 01:00 UTC

FM281600 25012G22KT P6SM BKN035

From

From Standard forecast or significant change

Wind
  • 250° at 12 KTS
  • {Gusting to 22 KTS
Cloud Levels
  • Broken at 3,500' AGL

Feb-29@
01:00 UTC

Feb-29 @ 01:00 UTC

Feb-29@
06:00 UTC

Feb-29 @ 06:00 UTC

FM290100 28008KT P6SM SCT035

From

From Standard forecast or significant change

Wind
  • 280° at 8 KTS
Cloud Levels
  • Scattered at 3,500' AGL